sensor_id;sensor_type;location;lat;lon;timestamp;pressure;altitude;pressure_sealevel;temperature;humidity
44351;BME280;62766;62.622;17.912;2022-09-09T00:01:51;102056.37;;;9.87;64.18
44351;BME280;62766;62.622;17.912;2022-09-09T00:04:27;102053.81;;;9.97;63.88
44351;BME280;62766;62.622;17.912;2022-09-09T00:07:01;102051.80;;;9.91;63.66
44351;BME280;62766;62.622;17.912;2022-09-09T00:09:38;102051.16;;;9.89;63.62
44351;BME280;62766;62.622;17.912;2022-09-09T00:12:12;102053.37;;;10.02;63.67
44351;BME280;62766;62.622;17.912;2022-09-09T00:14:49;102055.92;;;10.00;63.96
44351;BME280;62766;62.622;17.912;2022-09-09T00:17:28;102055.24;;;9.98;63.75
44351;BME280;62766;62.622;17.912;2022-09-09T00:20:11;102057.25;;;9.99;63.99
44351;BME280;62766;62.622;17.912;2022-09-09T00:22:45;102054.94;;;9.94;64.46
44351;BME280;62766;62.622;17.912;2022-09-09T00:25:19;102054.75;;;9.78;64.81
44351;BME280;62766;62.622;17.912;2022-09-09T00:27:50;102057.10;;;9.89;64.87
44351;BME280;62766;62.622;17.912;2022-09-09T00:30:22;102058.80;;;9.77;64.79
44351;BME280;62766;62.622;17.912;2022-09-09T00:32:53;102057.20;;;9.79;65.04
44351;BME280;62766;62.622;17.912;2022-09-09T00:35:25;102058.82;;;9.79;64.82
44351;BME280;62766;62.622;17.912;2022-09-09T00:37:58;102059.93;;;9.69;64.75
44351;BME280;62766;62.622;17.912;2022-09-09T00:40:32;102055.51;;;9.82;64.65
44351;BME280;62766;62.622;17.912;2022-09-09T00:43:18;102053.25;;;9.75;64.87
44351;BME280;62766;62.622;17.912;2022-09-09T00:50:48;102048.53;;;9.94;64.89
44351;BME280;62766;62.622;17.912;2022-09-09T00:53:31;102047.15;;;9.90;64.81
44351;BME280;62766;62.622;17.912;2022-09-09T00:56:11;102046.58;;;9.93;64.53
44351;BME280;62766;62.622;17.912;2022-09-09T00:58:43;102046.43;;;9.94;64.74
44351;BME280;62766;62.622;17.912;2022-09-09T01:01:18;102043.33;;;10.01;64.53
44351;BME280;62766;62.622;17.912;2022-09-09T01:03:53;102048.05;;;9.94;64.54
44351;BME280;62766;62.622;17.912;2022-09-09T01:06:26;102044.35;;;10.06;64.33
44351;BME280;62766;62.622;17.912;2022-09-09T01:09:10;102044.20;;;9.98;64.34
44351;BME280;62766;62.622;17.912;2022-09-09T01:11:51;102043.97;;;10.12;64.07
44351;BME280;62766;62.622;17.912;2022-09-09T01:14:32;102043.24;;;10.15;63.91
44351;BME280;62766;62.622;17.912;2022-09-09T01:17:11;102045.01;;;10.14;63.59
44351;BME280;62766;62.622;17.912;2022-09-09T01:19:54;102044.82;;;10.27;63.51
44351;BME280;62766;62.622;17.912;2022-09-09T01:22:31;102046.89;;;10.37;63.20
44351;BME280;62766;62.622;17.912;2022-09-09T01:25:16;102046.25;;;10.34;63.16
44351;BME280;62766;62.622;17.912;2022-09-09T01:27:48;102043.42;;;10.36;63.10
44351;BME280;62766;62.622;17.912;2022-09-09T01:30:19;102043.49;;;10.31;63.09
44351;BME280;62766;62.622;17.912;2022-09-09T01:32:50;102040.08;;;10.21;63.28
44351;BME280;62766;62.622;17.912;2022-09-09T01:35:33;102039.95;;;10.20;63.25
44351;BME280;62766;62.622;17.912;2022-09-09T01:38:04;102039.28;;;10.20;63.20
44351;BME280;62766;62.622;17.912;2022-09-09T01:40:34;102036.79;;;10.26;63.25
44351;BME280;62766;62.622;17.912;2022-09-09T01:43:02;102036.73;;;10.36;63.22
44351;BME280;62766;62.622;17.912;2022-09-09T01:45:32;102038.18;;;10.26;62.89
44351;BME280;62766;62.622;17.912;2022-09-09T01:48:02;102032.43;;;10.40;62.79
44351;BME280;62766;62.622;17.912;2022-09-09T01:50:32;102030.16;;;10.47;62.77
44351;BME280;62766;62.622;17.912;2022-09-09T01:53:01;102027.95;;;10.49;62.66
44351;BME280;62766;62.622;17.912;2022-09-09T01:55:32;102024.98;;;10.43;62.72
44351;BME280;62766;62.622;17.912;2022-09-09T01:58:13;102027.13;;;10.46;62.63
44351;BME280;62766;62.622;17.912;2022-09-09T02:00:53;102028.08;;;10.50;63.07
44351;BME280;62766;62.622;17.912;2022-09-09T02:03:26;102028.72;;;10.38;63.25
44351;BME280;62766;62.622;17.912;2022-09-09T02:06:02;102025.62;;;10.45;63.33
44351;BME280;62766;62.622;17.912;2022-09-09T02:08:40;102022.71;;;10.44;63.34
44351;BME280;62766;62.622;17.912;2022-09-09T02:11:13;102024.34;;;10.45;63.50
44351;BME280;62766;62.622;17.912;2022-09-09T02:13:44;102022.28;;;10.46;63.52
44351;BME280;62766;62.622;17.912;2022-09-09T02:16:18;102021.00;;;10.40;63.69
44351;BME280;62766;62.622;17.912;2022-09-09T02:18:53;102018.45;;;10.43;63.78
44351;BME280;62766;62.622;17.912;2022-09-09T02:21:27;102017.18;;;10.38;63.82
44351;BME280;62766;62.622;17.912;2022-09-09T02:23:59;102014.95;;;10.39;63.79
44351;BME280;62766;62.622;17.912;2022-09-09T02:26:28;102014.20;;;10.52;63.77
44351;BME280;62766;62.622;17.912;2022-09-09T02:29:01;102012.44;;;10.54;63.89
44351;BME280;62766;62.622;17.912;2022-09-09T02:31:32;102012.42;;;10.62;63.99
44351;BME280;62766;62.622;17.912;2022-09-09T02:34:05;102012.59;;;10.63;64.08
44351;BME280;62766;62.622;17.912;2022-09-09T02:36:37;102009.34;;;10.57;64.05
44351;BME280;62766;62.622;17.912;2022-09-09T02:39:09;102006.80;;;10.60;64.04
44351;BME280;62766;62.622;17.912;2022-09-09T02:41:40;102002.16;;;10.59;63.95
44351;BME280;62766;62.622;17.912;2022-09-09T02:44:10;102000.66;;;10.70;63.98
44351;BME280;62766;62.622;17.912;2022-09-09T02:46:54;101998.15;;;10.65;63.86
44351;BME280;62766;62.622;17.912;2022-09-09T02:49:30;101997.37;;;10.60;64.35
44351;BME280;62766;62.622;17.912;2022-09-09T02:52:06;101994.20;;;10.61;64.50
44351;BME280;62766;62.622;17.912;2022-09-09T02:54:38;101996.62;;;10.63;64.60
44351;BME280;62766;62.622;17.912;2022-09-09T02:57:10;101996.83;;;10.72;64.46
44351;BME280;62766;62.622;17.912;2022-09-09T02:59:40;101995.47;;;10.66;64.56
44351;BME280;62766;62.622;17.912;2022-09-09T03:02:09;101994.07;;;10.86;64.50
44351;BME280;62766;62.622;17.912;2022-09-09T03:04:38;101995.38;;;10.79;64.48
44351;BME280;62766;62.622;17.912;2022-09-09T03:07:06;101992.38;;;10.75;64.63
44351;BME280;62766;62.622;17.912;2022-09-09T03:09:34;101989.24;;;10.90;64.16
44351;BME280;62766;62.622;17.912;2022-09-09T03:12:02;101987.89;;;10.69;64.26
44351;BME280;62766;62.622;17.912;2022-09-09T03:14:30;101985.80;;;10.82;64.46
44351;BME280;62766;62.622;17.912;2022-09-09T03:16:58;101983.20;;;10.90;64.72
44351;BME280;62766;62.622;17.912;2022-09-09T03:19:27;101984.23;;;10.82;64.46
44351;BME280;62766;62.622;17.912;2022-09-09T03:21:55;101984.57;;;10.76;64.82
44351;BME280;62766;62.622;17.912;2022-09-09T03:24:23;101978.58;;;10.74;64.77
44351;BME280;62766;62.622;17.912;2022-09-09T03:26:51;101979.53;;;10.75;64.95
44351;BME280;62766;62.622;17.912;2022-09-09T03:29:21;101974.78;;;10.73;65.20
44351;BME280;62766;62.622;17.912;2022-09-09T03:31:50;101972.65;;;10.72;65.34
44351;BME280;62766;62.622;17.912;2022-09-09T03:34:18;101969.87;;;10.84;65.25
44351;BME280;62766;62.622;17.912;2022-09-09T03:36:48;101968.00;;;10.82;64.93
44351;BME280;62766;62.622;17.912;2022-09-09T03:39:16;101965.27;;;10.87;65.17
44351;BME280;62766;62.622;17.912;2022-09-09T03:41:44;101968.36;;;10.84;65.32
44351;BME280;62766;62.622;17.912;2022-09-09T03:44:12;101966.77;;;10.87;65.27
44351;BME280;62766;62.622;17.912;2022-09-09T03:46:41;101968.97;;;10.95;65.31
44351;BME280;62766;62.622;17.912;2022-09-09T03:49:09;101964.36;;;10.82;65.20
44351;BME280;62766;62.622;17.912;2022-09-09T03:51:37;101965.28;;;10.91;65.08
44351;BME280;62766;62.622;17.912;2022-09-09T03:54:06;101964.01;;;10.92;64.87
44351;BME280;62766;62.622;17.912;2022-09-09T03:56:36;101966.00;;;10.91;64.48
44351;BME280;62766;62.622;17.912;2022-09-09T03:59:05;101963.25;;;11.01;64.44
44351;BME280;62766;62.622;17.912;2022-09-09T04:03:27;101966.82;;;10.89;64.29
44351;BME280;62766;62.622;17.912;2022-09-09T04:05:58;101964.74;;;10.98;64.27
44351;BME280;62766;62.622;17.912;2022-09-09T04:08:28;101962.95;;;10.82;63.90
44351;BME280;62766;62.622;17.912;2022-09-09T04:10:56;101958.43;;;10.93;63.53
44351;BME280;62766;62.622;17.912;2022-09-09T04:13:25;101957.89;;;10.90;63.29
44351;BME280;62766;62.622;17.912;2022-09-09T04:15:57;101956.47;;;10.98;62.95
44351;BME280;62766;62.622;17.912;2022-09-09T04:18:27;101956.66;;;10.91;62.43
44351;BME280;62766;62.622;17.912;2022-09-09T04:20:57;101955.27;;;10.97;62.01
44351;BME280;62766;62.622;17.912;2022-09-09T04:23:27;101957.63;;;11.14;61.97
44351;BME280;62766;62.622;17.912;2022-09-09T04:25:57;101956.59;;;11.16;61.93
44351;BME280;62766;62.622;17.912;2022-09-09T04:28:28;101957.57;;;11.08;61.97
44351;BME280;62766;62.622;17.912;2022-09-09T04:30:56;101956.70;;;11.11;61.96
44351;BME280;62766;62.622;17.912;2022-09-09T04:33:26;101956.05;;;11.08;61.66
44351;BME280;62766;62.622;17.912;2022-09-09T04:35:54;101957.08;;;11.07;61.36
44351;BME280;62766;62.622;17.912;2022-09-09T04:38:23;101955.33;;;11.22;61.13
44351;BME280;62766;62.622;17.912;2022-09-09T04:40:52;101955.93;;;11.27;60.96
44351;BME280;62766;62.622;17.912;2022-09-09T04:43:21;101950.80;;;11.29;61.06
44351;BME280;62766;62.622;17.912;2022-09-09T04:45:51;101952.07;;;11.20;60.94
44351;BME280;62766;62.622;17.912;2022-09-09T04:48:21;101952.42;;;11.26;61.10
44351;BME280;62766;62.622;17.912;2022-09-09T04:50:55;101952.00;;;11.30;60.87
44351;BME280;62766;62.622;17.912;2022-09-09T04:53:25;101949.75;;;11.52;60.75
44351;BME280;62766;62.622;17.912;2022-09-09T04:56:01;101949.11;;;11.46;60.74
44351;BME280;62766;62.622;17.912;2022-09-09T04:58:31;101949.54;;;11.48;60.36
44351;BME280;62766;62.622;17.912;2022-09-09T05:01:04;101949.24;;;11.57;60.07
44351;BME280;62766;62.622;17.912;2022-09-09T05:03:33;101950.72;;;11.57;60.00
44351;BME280;62766;62.622;17.912;2022-09-09T05:06:03;101950.20;;;11.65;60.09
44351;BME280;62766;62.622;17.912;2022-09-09T05:08:32;101952.64;;;11.71;59.90
44351;BME280;62766;62.622;17.912;2022-09-09T05:11:04;101954.34;;;11.60;59.55
44351;BME280;62766;62.622;17.912;2022-09-09T05:13:32;101957.17;;;11.91;59.20
44351;BME280;62766;62.622;17.912;2022-09-09T05:16:01;101956.78;;;11.93;58.91
44351;BME280;62766;62.622;17.912;2022-09-09T05:18:30;101959.31;;;11.90;59.09
44351;BME280;62766;62.622;17.912;2022-09-09T05:20:59;101954.87;;;12.01;58.58
44351;BME280;62766;62.622;17.912;2022-09-09T05:23:27;101956.75;;;12.10;58.33
44351;BME280;62766;62.622;17.912;2022-09-09T05:25:57;101955.11;;;12.12;58.40
44351;BME280;62766;62.622;17.912;2022-09-09T05:28:27;101958.36;;;12.08;58.82
44351;BME280;62766;62.622;17.912;2022-09-09T05:30:57;101956.93;;;12.20;58.60
44351;BME280;62766;62.622;17.912;2022-09-09T05:33:27;101956.73;;;12.22;57.96
44351;BME280;62766;62.622;17.912;2022-09-09T05:35:57;101956.75;;;12.32;57.70
44351;BME280;62766;62.622;17.912;2022-09-09T05:38:26;101953.18;;;12.29;57.09
44351;BME280;62766;62.622;17.912;2022-09-09T05:40:56;101950.10;;;12.33;57.03
44351;BME280;62766;62.622;17.912;2022-09-09T05:43:26;101952.38;;;12.30;56.89
44351;BME280;62766;62.622;17.912;2022-09-09T05:46:03;101954.73;;;12.25;57.23
44351;BME280;62766;62.622;17.912;2022-09-09T05:48:35;101955.82;;;12.31;57.09
44351;BME280;62766;62.622;17.912;2022-09-09T05:51:04;101955.87;;;12.35;57.01
44351;BME280;62766;62.622;17.912;2022-09-09T05:53:33;101959.84;;;12.36;57.28
44351;BME280;62766;62.622;17.912;2022-09-09T05:56:02;101959.17;;;12.39;57.38
44351;BME280;62766;62.622;17.912;2022-09-09T05:58:31;101956.24;;;12.30;57.73
44351;BME280;62766;62.622;17.912;2022-09-09T06:01:03;101953.30;;;12.21;57.34
44351;BME280;62766;62.622;17.912;2022-09-09T06:03:34;101952.27;;;12.51;56.78
44351;BME280;62766;62.622;17.912;2022-09-09T06:06:04;101954.25;;;12.54;56.70
44351;BME280;62766;62.622;17.912;2022-09-09T06:08:35;101955.05;;;12.64;56.54
44351;BME280;62766;62.622;17.912;2022-09-09T06:11:07;101954.67;;;12.73;56.44
44351;BME280;62766;62.622;17.912;2022-09-09T06:13:36;101955.67;;;12.56;56.09
44351;BME280;62766;62.622;17.912;2022-09-09T06:16:08;101953.82;;;12.52;56.08
44351;BME280;62766;62.622;17.912;2022-09-09T06:18:38;101952.82;;;12.61;56.17
44351;BME280;62766;62.622;17.912;2022-09-09T06:21:13;101952.67;;;12.76;56.07
44351;BME280;62766;62.622;17.912;2022-09-09T06:23:43;101954.07;;;12.79;56.20
44351;BME280;62766;62.622;17.912;2022-09-09T06:26:15;101954.02;;;12.75;56.32
44351;BME280;62766;62.622;17.912;2022-09-09T06:28:43;101954.32;;;12.72;56.36
44351;BME280;62766;62.622;17.912;2022-09-09T06:31:15;101953.94;;;12.94;56.38
44351;BME280;62766;62.622;17.912;2022-09-09T06:33:44;101951.66;;;12.96;56.27
44351;BME280;62766;62.622;17.912;2022-09-09T06:36:15;101953.05;;;13.01;55.63
44351;BME280;62766;62.622;17.912;2022-09-09T06:38:45;101954.23;;;12.93;55.14
44351;BME280;62766;62.622;17.912;2022-09-09T06:41:16;101950.20;;;13.06;55.34
44351;BME280;62766;62.622;17.912;2022-09-09T06:43:45;101951.55;;;13.10;54.95
44351;BME280;62766;62.622;17.912;2022-09-09T06:46:14;101953.35;;;13.08;55.21
44351;BME280;62766;62.622;17.912;2022-09-09T06:48:43;101953.18;;;13.18;54.08
44351;BME280;62766;62.622;17.912;2022-09-09T06:51:14;101956.88;;;13.21;53.99
44351;BME280;62766;62.622;17.912;2022-09-09T06:53:45;101959.29;;;13.25;53.95
44351;BME280;62766;62.622;17.912;2022-09-09T06:56:19;101960.08;;;13.32;53.60
44351;BME280;62766;62.622;17.912;2022-09-09T06:58:47;101960.41;;;13.28;53.18
44351;BME280;62766;62.622;17.912;2022-09-09T07:01:17;101964.50;;;13.24;52.46
44351;BME280;62766;62.622;17.912;2022-09-09T07:03:49;101964.28;;;13.33;51.86
44351;BME280;62766;62.622;17.912;2022-09-09T07:06:19;101968.26;;;13.40;52.25
44351;BME280;62766;62.622;17.912;2022-09-09T07:08:49;101965.95;;;13.34;51.71
44351;BME280;62766;62.622;17.912;2022-09-09T07:11:20;101975.36;;;13.10;52.49
44351;BME280;62766;62.622;17.912;2022-09-09T07:13:49;101972.34;;;13.22;52.11
44351;BME280;62766;62.622;17.912;2022-09-09T07:16:18;101971.84;;;13.11;52.22
44351;BME280;62766;62.622;17.912;2022-09-09T07:18:47;101974.93;;;13.35;51.51
44351;BME280;62766;62.622;17.912;2022-09-09T07:21:15;101975.21;;;13.35;51.63
44351;BME280;62766;62.622;17.912;2022-09-09T07:23:43;101975.26;;;13.56;51.66
44351;BME280;62766;62.622;17.912;2022-09-09T07:26:14;101969.83;;;13.62;51.11
44351;BME280;62766;62.622;17.912;2022-09-09T07:28:43;101971.78;;;13.63;50.99
44351;BME280;62766;62.622;17.912;2022-09-09T07:31:14;101972.12;;;13.67;50.12
44351;BME280;62766;62.622;17.912;2022-09-09T07:33:44;101974.53;;;13.58;49.84
44351;BME280;62766;62.622;17.912;2022-09-09T07:36:15;101973.64;;;13.61;49.69
44351;BME280;62766;62.622;17.912;2022-09-09T07:38:45;101977.45;;;13.60;49.91
44351;BME280;62766;62.622;17.912;2022-09-09T07:41:17;101974.59;;;13.54;50.17
44351;BME280;62766;62.622;17.912;2022-09-09T07:43:47;101979.74;;;13.61;49.82
44351;BME280;62766;62.622;17.912;2022-09-09T07:46:18;101980.70;;;13.58;49.55
44351;BME280;62766;62.622;17.912;2022-09-09T07:48:48;101987.09;;;13.61;49.94
44351;BME280;62766;62.622;17.912;2022-09-09T07:51:17;101982.49;;;13.54;49.12
44351;BME280;62766;62.622;17.912;2022-09-09T07:53:46;101980.68;;;13.86;48.90
44351;BME280;62766;62.622;17.912;2022-09-09T07:56:17;101980.90;;;13.83;48.20
44351;BME280;62766;62.622;17.912;2022-09-09T07:58:46;101978.94;;;13.70;48.09
44351;BME280;62766;62.622;17.912;2022-09-09T08:01:17;101980.67;;;13.93;48.21
44351;BME280;62766;62.622;17.912;2022-09-09T08:03:47;101982.86;;;13.91;47.91
44351;BME280;62766;62.622;17.912;2022-09-09T08:06:21;101985.21;;;13.90;47.61
44351;BME280;62766;62.622;17.912;2022-09-09T08:08:50;101984.98;;;13.95;47.66
44351;BME280;62766;62.622;17.912;2022-09-09T08:11:19;101983.45;;;14.08;47.11
44351;BME280;62766;62.622;17.912;2022-09-09T08:13:47;101986.02;;;14.24;47.09
44351;BME280;62766;62.622;17.912;2022-09-09T08:16:17;101985.48;;;14.12;46.81
44351;BME280;62766;62.622;17.912;2022-09-09T08:18:47;101986.72;;;14.02;47.21
44351;BME280;62766;62.622;17.912;2022-09-09T08:21:18;101983.57;;;14.05;46.96
44351;BME280;62766;62.622;17.912;2022-09-09T08:23:50;101980.87;;;14.02;46.87
44351;BME280;62766;62.622;17.912;2022-09-09T08:26:22;101980.32;;;13.96;46.70
44351;BME280;62766;62.622;17.912;2022-09-09T08:28:53;101978.88;;;14.12;46.51
44351;BME280;62766;62.622;17.912;2022-09-09T08:31:24;101981.77;;;14.35;46.18
44351;BME280;62766;62.622;17.912;2022-09-09T08:33:54;101979.33;;;14.49;45.78
44351;BME280;62766;62.622;17.912;2022-09-09T08:36:25;101981.48;;;14.53;45.92
44351;BME280;62766;62.622;17.912;2022-09-09T08:38:56;101980.46;;;14.46;44.93
44351;BME280;62766;62.622;17.912;2022-09-09T08:41:44;101980.33;;;14.57;44.95
44351;BME280;62766;62.622;17.912;2022-09-09T08:44:23;101980.88;;;14.43;45.75
44351;BME280;62766;62.622;17.912;2022-09-09T08:46:58;101984.25;;;14.37;46.28
44351;BME280;62766;62.622;17.912;2022-09-09T08:49:55;101982.23;;;14.53;46.36
44351;BME280;62766;62.622;17.912;2022-09-09T08:52:29;101982.19;;;14.49;45.49
44351;BME280;62766;62.622;17.912;2022-09-09T08:55:15;101983.07;;;14.34;45.59
44351;BME280;62766;62.622;17.912;2022-09-09T08:57:49;101984.46;;;14.47;45.81
44351;BME280;62766;62.622;17.912;2022-09-09T09:00:20;101981.20;;;14.53;46.11
44351;BME280;62766;62.622;17.912;2022-09-09T09:02:58;101983.19;;;14.45;45.76
44351;BME280;62766;62.622;17.912;2022-09-09T09:05:32;101981.58;;;14.36;45.28
44351;BME280;62766;62.622;17.912;2022-09-09T09:08:12;101982.98;;;14.34;46.03
44351;BME280;62766;62.622;17.912;2022-09-09T09:10:46;101983.24;;;14.41;46.35
44351;BME280;62766;62.622;17.912;2022-09-09T09:13:18;101982.69;;;14.40;46.28
44351;BME280;62766;62.622;17.912;2022-09-09T09:15:52;101981.23;;;14.40;45.96
44351;BME280;62766;62.622;17.912;2022-09-09T09:18:22;101980.94;;;14.38;46.03
44351;BME280;62766;62.622;17.912;2022-09-09T09:20:59;101980.42;;;14.59;45.36
44351;BME280;62766;62.622;17.912;2022-09-09T09:23:35;101978.82;;;14.84;43.42
44351;BME280;62766;62.622;17.912;2022-09-09T09:26:09;101980.89;;;14.66;43.79
44351;BME280;62766;62.622;17.912;2022-09-09T09:28:39;101980.29;;;14.50;43.92
44351;BME280;62766;62.622;17.912;2022-09-09T09:31:10;101975.74;;;14.41;44.30
44351;BME280;62766;62.622;17.912;2022-09-09T09:33:46;101976.18;;;14.10;44.87
44351;BME280;62766;62.622;17.912;2022-09-09T09:36:16;101972.97;;;14.25;45.38
44351;BME280;62766;62.622;17.912;2022-09-09T09:38:55;101974.59;;;14.39;45.58
44351;BME280;62766;62.622;17.912;2022-09-09T09:41:34;101972.93;;;14.57;45.44
44351;BME280;62766;62.622;17.912;2022-09-09T09:44:03;101972.78;;;14.53;44.63
44351;BME280;62766;62.622;17.912;2022-09-09T09:46:33;101970.58;;;14.37;43.99
44351;BME280;62766;62.622;17.912;2022-09-09T09:49:02;101972.86;;;14.53;43.14
44351;BME280;62766;62.622;17.912;2022-09-09T09:51:32;101972.20;;;14.60;44.39
44351;BME280;62766;62.622;17.912;2022-09-09T09:54:12;101970.90;;;14.82;45.57
44351;BME280;62766;62.622;17.912;2022-09-09T09:56:43;101970.41;;;15.06;45.12
44351;BME280;62766;62.622;17.912;2022-09-09T09:59:23;101964.23;;;15.21;45.09
44351;BME280;62766;62.622;17.912;2022-09-09T10:03:32;101955.18;;;15.43;45.03
44351;BME280;62766;62.622;17.912;2022-09-09T10:06:03;101955.56;;;15.41;44.40
44351;BME280;62766;62.622;17.912;2022-09-09T10:08:43;101950.92;;;15.31;44.25
44351;BME280;62766;62.622;17.912;2022-09-09T10:11:25;101948.54;;;15.32;45.09
44351;BME280;62766;62.622;17.912;2022-09-09T10:14:05;101938.69;;;15.36;45.39
44351;BME280;62766;62.622;17.912;2022-09-09T10:16:52;101938.81;;;15.53;45.74
44351;BME280;62766;62.622;17.912;2022-09-09T10:19:30;101931.87;;;15.57;45.44
44351;BME280;62766;62.622;17.912;2022-09-09T10:22:07;101931.95;;;15.58;45.76
44351;BME280;62766;62.622;17.912;2022-09-09T10:24:53;101931.23;;;15.63;45.58
44351;BME280;62766;62.622;17.912;2022-09-09T10:27:31;101931.52;;;15.62;44.80
44351;BME280;62766;62.622;17.912;2022-09-09T10:30:09;101933.23;;;15.58;45.05
44351;BME280;62766;62.622;17.912;2022-09-09T10:32:48;101934.14;;;15.61;45.16
44351;BME280;62766;62.622;17.912;2022-09-09T10:35:25;101929.60;;;15.54;45.30
44351;BME280;62766;62.622;17.912;2022-09-09T10:38:13;101933.84;;;15.48;45.75
44351;BME280;62766;62.622;17.912;2022-09-09T10:40:49;101932.43;;;15.58;45.18
44351;BME280;62766;62.622;17.912;2022-09-09T10:43:42;101928.55;;;15.86;45.98
44351;BME280;62766;62.622;17.912;2022-09-09T10:46:19;101933.70;;;16.02;46.05
44351;BME280;62766;62.622;17.912;2022-09-09T10:49:01;101935.82;;;16.10;45.03
44351;BME280;62766;62.622;17.912;2022-09-09T10:51:40;101935.15;;;16.20;43.67
44351;BME280;62766;62.622;17.912;2022-09-09T10:54:33;101935.33;;;16.34;44.41
44351;BME280;62766;62.622;17.912;2022-09-09T10:57:07;101940.54;;;16.53;45.40
44351;BME280;62766;62.622;17.912;2022-09-09T10:59:42;101939.20;;;16.31;44.69
44351;BME280;62766;62.622;17.912;2022-09-09T11:02:17;101938.98;;;16.25;45.54
44351;BME280;62766;62.622;17.912;2022-09-09T11:04:53;101935.74;;;16.44;45.74
44351;BME280;62766;62.622;17.912;2022-09-09T11:07:30;101935.34;;;16.54;43.99
44351;BME280;62766;62.622;17.912;2022-09-09T11:10:07;101934.69;;;16.26;43.83
44351;BME280;62766;62.622;17.912;2022-09-09T11:12:44;101933.38;;;16.32;44.74
44351;BME280;62766;62.622;17.912;2022-09-09T11:15:19;101934.15;;;16.35;44.50
44351;BME280;62766;62.622;17.912;2022-09-09T11:17:52;101936.80;;;16.55;44.40
44351;BME280;62766;62.622;17.912;2022-09-09T11:20:21;101933.37;;;16.74;43.64
44351;BME280;62766;62.622;17.912;2022-09-09T11:22:53;101928.94;;;16.63;43.99
44351;BME280;62766;62.622;17.912;2022-09-09T11:25:26;101931.53;;;16.43;43.75
44351;BME280;62766;62.622;17.912;2022-09-09T11:28:25;101933.65;;;16.45;44.19
44351;BME280;62766;62.622;17.912;2022-09-09T11:31:11;101933.59;;;16.60;44.94
44351;BME280;62766;62.622;17.912;2022-09-09T11:33:58;101931.73;;;16.50;44.38
44351;BME280;62766;62.622;17.912;2022-09-09T11:36:54;101929.58;;;16.71;45.35
44351;BME280;62766;62.622;17.912;2022-09-09T11:39:43;101922.35;;;16.82;44.15
44351;BME280;62766;62.622;17.912;2022-09-09T11:42:19;101921.02;;;16.93;44.79
44351;BME280;62766;62.622;17.912;2022-09-09T11:44:48;101922.71;;;17.02;44.15
44351;BME280;62766;62.622;17.912;2022-09-09T11:47:22;101919.83;;;16.80;43.50
44351;BME280;62766;62.622;17.912;2022-09-09T11:49:52;101915.11;;;16.37;43.87
44351;BME280;62766;62.622;17.912;2022-09-09T11:52:23;101914.05;;;16.46;45.52
44351;BME280;62766;62.622;17.912;2022-09-09T11:54:51;101913.08;;;16.47;45.09
44351;BME280;62766;62.622;17.912;2022-09-09T11:57:26;101915.63;;;16.55;44.79
44351;BME280;62766;62.622;17.912;2022-09-09T11:59:58;101916.85;;;16.47;44.85
44351;BME280;62766;62.622;17.912;2022-09-09T12:02:28;101915.65;;;16.23;44.71
44351;BME280;62766;62.622;17.912;2022-09-09T12:04:59;101913.55;;;16.25;44.75
44351;BME280;62766;62.622;17.912;2022-09-09T12:07:33;101908.56;;;16.12;44.58
44351;BME280;62766;62.622;17.912;2022-09-09T12:10:05;101906.84;;;16.15;45.38
44351;BME280;62766;62.622;17.912;2022-09-09T12:12:47;101906.31;;;16.33;44.65
44351;BME280;62766;62.622;17.912;2022-09-09T12:15:22;101904.11;;;16.38;44.46
44351;BME280;62766;62.622;17.912;2022-09-09T12:17:53;101901.63;;;16.40;45.13
44351;BME280;62766;62.622;17.912;2022-09-09T12:20:23;101900.38;;;16.36;44.84
44351;BME280;62766;62.622;17.912;2022-09-09T12:23:05;101898.42;;;16.44;45.38
44351;BME280;62766;62.622;17.912;2022-09-09T12:25:52;101895.87;;;16.61;44.03
44351;BME280;62766;62.622;17.912;2022-09-09T12:28:41;101892.69;;;16.38;43.77
44351;BME280;62766;62.622;17.912;2022-09-09T12:31:17;101887.15;;;16.50;44.59
44351;BME280;62766;62.622;17.912;2022-09-09T12:33:47;101882.63;;;16.96;44.39
44351;BME280;62766;62.622;17.912;2022-09-09T12:36:18;101883.71;;;17.31;45.26
44351;BME280;62766;62.622;17.912;2022-09-09T12:38:48;101883.45;;;17.37;44.64
44351;BME280;62766;62.622;17.912;2022-09-09T12:41:21;101881.49;;;17.17;44.75
44351;BME280;62766;62.622;17.912;2022-09-09T12:43:50;101881.95;;;17.33;44.00
44351;BME280;62766;62.622;17.912;2022-09-09T12:46:25;101880.63;;;17.21;43.97
44351;BME280;62766;62.622;17.912;2022-09-09T12:48:58;101881.16;;;17.12;44.15
44351;BME280;62766;62.622;17.912;2022-09-09T12:51:29;101883.63;;;17.08;44.69
44351;BME280;62766;62.622;17.912;2022-09-09T12:53:58;101878.09;;;17.17;45.47
44351;BME280;62766;62.622;17.912;2022-09-09T12:56:30;101873.50;;;17.42;45.64
44351;BME280;62766;62.622;17.912;2022-09-09T12:58:59;101871.12;;;17.38;46.26
44351;BME280;62766;62.622;17.912;2022-09-09T13:01:29;101874.79;;;17.18;46.26
44351;BME280;62766;62.622;17.912;2022-09-09T13:03:59;101874.52;;;16.88;47.14
44351;BME280;62766;62.622;17.912;2022-09-09T13:06:30;101876.44;;;16.75;47.82
44351;BME280;62766;62.622;17.912;2022-09-09T13:09:00;101871.41;;;16.48;48.10
44351;BME280;62766;62.622;17.912;2022-09-09T13:11:31;101869.52;;;16.56;48.31
44351;BME280;62766;62.622;17.912;2022-09-09T13:14:04;101868.01;;;16.56;48.36
44351;BME280;62766;62.622;17.912;2022-09-09T13:16:34;101859.66;;;16.75;48.36
44351;BME280;62766;62.622;17.912;2022-09-09T13:19:08;101861.67;;;16.81;47.43